Meteo Giornale » Osservazioni meteo Italia » Napoli-Capodichino

ore: 05:20 - Osservazioni Meteo Napoli-Capodichino
Lat. 40° 51' N Lon. 14° 18' E Alt. 88 metri s.l.m.

sereno Europe/Rome

23 °C

Sereno

Temp. 24 Ore

23 °C

34 °C

Est/Nord-Est

7.4 Km/h

Dew point 17 °C

Umidità 68 %

Visibilità  10 Km

Il sole sorge alle ore 05:54

Il sole tramonta alle ore 20:24

Data e Ora Cielo e Fenomeni T °C DP °C Um. % Pres. hPa Vis. km Vento km/h
Oggi h: 05:20 sereno Sereno 23 17 68 1016 10 E/NE 7.4
Oggi h: 04:50 sereno Sereno 24 17 64 1016 10 N 5.5
Oggi h: 04:20 sereno Sereno 25 17 61 1016 10 N 5.5
Oggi h: 03:50 sereno Sereno 25 17 61 1016 10 N 3.7
Oggi h: 03:20 sereno Sereno 24 17 64 1016 10 N 3.7
Oggi h: 02:50 sereno Sereno 24 17 64 1016 10 N 3.7
Oggi h: 02:20 sereno Sereno 24 17 64 1017 10 N 3.7
Oggi h: 01:50 sereno Sereno 25 17 61 1017 10 N 1.8
Oggi h: 01:20 sereno Sereno 25 17 61 1017 10 N 1.8
Oggi h: 00:50 poco_nuvoloso Poco Nuvoloso 26 17 57 1017 10 N 5.5
Oggi h: 00:20 molto_nuvoloso Molto Nuvoloso 27 16 50 1017 10 E 7.4
Ieri h: 23:50 molto_nuvoloso Molto Nuvoloso 28 15 45 1017 10 N 3.7
Ieri h: 23:20 molto_nuvoloso Molto Nuvoloso 28 17 51 1017 10 N 5.5
Ieri h: 22:50 poco_nuvoloso Poco Nuvoloso 27 16 50 1017 10 N 3.7
Ieri h: 22:20 sereno Sereno 27 16 50 1017 10 N 0
Ieri h: 21:50 sereno Sereno 28 16 48 1017 10 N 1.8
Ieri h: 21:20 nuvoloso Nuvoloso 28 16 48 1017 10 N 1.8
Ieri h: 20:50 sereno Sereno 29 16 45 1017 10 N 5.5
Ieri h: 20:20 sereno Sereno 29 16 45 1017 10 N/NE 9.3
Ieri h: 19:50 sereno Sereno 29 16 45 1017 10 N/NO 14.8
Ieri h: 19:20 sereno Sereno 31 16 40 1017 10 N/NO 11.1
Ieri h: 18:50 sereno Sereno 31 18 45 1017 10 N 5.5
Ieri h: 18:20 sereno Sereno 31 20 52 1017 10 S/SO 9.3
Ieri h: 17:50 sereno Sereno 31 19 48 1017 10 S/SO 11.1
Ieri h: 17:20 sereno Sereno 32 18 43 1017 10 S/SO 11.1
Ieri h: 16:50 sereno Sereno 33 15 33 1017 10 S/SO 9.3
Ieri h: 16:20 sereno Sereno 33 18 41 1017 10 SO 11.1
Ieri h: 15:50 sereno Sereno 33 16 36 1017 10 S/SO 13
Ieri h: 15:20 sereno Sereno 34 14 30 1017 10 SO 11.1
Ieri h: 14:50 sereno Sereno 34 14 30 1017 10 SO 14.8
Ieri h: 14:20 sereno Sereno 34 14 30 1017 10 SO 14.8
Ieri h: 13:50 sereno Sereno 34 14 30 1017 10 SO 11.1
Ieri h: 13:20 sereno Sereno 34 13 28 1017 10 SO 13
Ieri h: 12:50 sereno Sereno 33 15 33 1018 10 SO 11.1
Ieri h: 12:20 sereno Sereno 33 15 33 1018 10 N 9.3
Ieri h: 11:50 sereno Sereno 33 15 33 1018 10 S/SO 9.3
Ieri h: 11:20 sereno Sereno 33 13 29 1018 10 SO 9.3
Ieri h: 10:50 sereno Sereno 32 16 38 1018 10 SO 7.4
Ieri h: 10:20 sereno Sereno 31 16 40 1018 10 N 5.5
Ieri h: 09:50 poco_nuvoloso Poco Nuvoloso 31 13 33 1018 10 S/SO 7.4
Ieri h: 09:20 sereno Sereno 30 13 35 1018 10 N 1.8
Ieri h: 08:50 sereno Sereno 29 14 39 1018 10 N 3.7
Ieri h: 08:20 poco_nuvoloso Poco Nuvoloso 28 14 42 1018 10 N 3.7
Ieri h: 07:50 poco_nuvoloso Poco Nuvoloso 27 14 44 1017 10 N 1.8
Ieri h: 07:20 poco_nuvoloso Poco Nuvoloso 26 14 47 1018 10 N 3.7
Ieri h: 06:50 sereno Sereno 25 14 50 1017 10 NE 7.4